Time;durP1;ratioP1;P1;durP2;ratioP2;P2;SDS_P1;SDS_P2;PMS_P1;PMS_P2;Temp;Humidity;BMP_temperature;BMP_pressure;BME280_temperature;BME280_humidity;BME280_pressure;Samples;Min_cycle;Max_cycle;Signal;HPM_P1;HPM_P2
2022/06/04 00:02:18;;;;;;;1.83;1.02;;;;;;;19.96;79.90;96250.34;5046499;28;20348;-87
2022/06/04 00:04:45;;;;;;;2.25;1.00;;;;;;;19.94;81.12;96240.78;5047257;28;20236;-86
2022/06/04 00:07:12;;;;;;;1.40;1.30;;;;;;;19.91;79.90;96236.69;5046619;28;20296;-87
2022/06/04 00:15:28;;;;;;;2.45;1.30;;;;;;;19.87;80.30;96237.59;5032641;28;20212;-87
2022/06/04 00:15:30;;;;;;;3.42;1.00;;;;;;;19.99;79.44;96224.25;5030578;28;20213;-87
2022/06/04 00:17:58;;;;;;;2.88;1.42;;;;;;;19.91;80.35;96211.22;5020417;28;20205;-87
2022/06/04 00:20:25;;;;;;;1.65;1.20;;;;;;;19.82;79.84;96202.81;5030209;28;20229;-87
2022/06/04 00:22:58;;;;;;;4.50;1.20;;;;;;;19.83;79.48;96209.94;5027149;28;20209;-86
2022/06/04 00:25:26;;;;;;;1.48;1.13;;;;;;;19.89;79.21;96200.56;5029582;28;20209;-87
2022/06/04 00:27:53;;;;;;;1.58;1.17;;;;;;;19.91;78.52;96212.03;5033559;28;20209;-88
2022/06/04 00:30:22;;;;;;;3.83;1.20;;;;;;;19.86;79.03;96208.53;5034689;28;20225;-86
2022/06/04 00:32:49;;;;;;;3.05;1.27;;;;;;;19.95;76.94;96209.53;5048769;28;20217;-87
2022/06/04 00:35:17;;;;;;;4.53;1.42;;;;;;;19.99;76.15;96216.03;5045947;28;20207;-86
2022/06/04 00:37:44;;;;;;;1.50;1.30;;;;;;;20.13;75.46;96222.47;5032671;28;20214;-88
2022/06/04 00:40:28;;;;;;;4.03;1.30;;;;;;;20.18;76.04;96218.81;5050519;28;20225;-88
2022/06/04 00:42:57;;;;;;;3.17;1.40;;;;;;;20.16;75.58;96205.41;5039873;28;20304;-88
2022/06/04 00:45:58;;;;;;;1.70;1.20;;;;;;;20.24;74.93;96206.69;5033013;28;20299;-88
2022/06/04 00:48:25;;;;;;;3.20;1.20;;;;;;;20.18;76.43;96205.13;5026222;28;20228;-86
2022/06/04 00:50:52;;;;;;;1.58;1.30;;;;;;;20.16;77.14;96213.63;5050886;28;20205;-86
2022/06/04 00:53:19;;;;;;;3.78;1.20;;;;;;;19.96;79.39;96213.91;5042637;28;20210;-86
2022/06/04 00:55:55;;;;;;;2.75;1.20;;;;;;;19.82;77.44;96211.03;5034355;28;20210;-87
2022/06/04 00:58:41;;;;;;;2.50;1.25;;;;;;;19.79;78.13;96210.81;5026578;28;20209;-88
2022/06/04 01:01:18;;;;;;;4.40;1.80;;;;;;;19.67;80.48;96207.66;5029429;28;20226;-86
2022/06/04 01:03:56;;;;;;;3.45;1.77;;;;;;;19.52;84.61;96217.69;5052919;28;20212;-88
2022/06/04 01:06:30;;;;;;;5.32;1.75;;;;;;;19.32;88.63;96225.25;5045954;28;20202;-87
2022/06/04 01:09:07;;;;;;;3.50;1.80;;;;;;;19.15;90.63;96231.16;5046220;28;20295;-87
2022/06/04 01:14:55;;;;;;;4.00;1.95;;;;;;;18.68;96.12;96243.56;5042915;28;20304;-87
2022/06/04 01:17:34;;;;;;;2.03;1.65;;;;;;;18.58;97.32;96240.09;5035055;28;20229;-88
2022/06/04 01:20:10;;;;;;;2.05;1.67;;;;;;;18.41;99.34;96244.00;5030540;28;20213;-88
2022/06/04 01:23:07;;;;;;;3.70;1.67;;;;;;;18.09;100.00;96260.81;5042100;28;20293;-88
2022/06/04 01:25:46;;;;;;;3.38;1.80;;;;;;;17.96;100.00;96247.75;5028140;28;20284;-87
2022/06/04 01:28:16;;;;;;;3.92;1.70;;;;;;;17.83;100.00;96256.56;5022185;28;20221;-87
2022/06/04 01:30:48;;;;;;;5.60;2.00;;;;;;;17.70;100.00;96241.56;5041171;28;20332;-88
2022/06/04 01:33:20;;;;;;;4.27;1.50;;;;;;;17.62;100.00;96241.31;5046557;28;20205;-87
2022/06/04 01:35:53;;;;;;;5.23;2.00;;;;;;;17.63;100.00;96257.41;5031443;28;20205;-87
2022/06/04 01:38:25;;;;;;;1.80;1.70;;;;;;;17.61;100.00;96264.22;5044560;28;20248;-87
2022/06/04 01:41:04;;;;;;;3.03;1.63;;;;;;;17.47;100.00;96274.09;5042576;28;20306;-86
2022/06/04 01:43:39;;;;;;;2.60;2.13;;;;;;;17.36;100.00;96271.34;5026466;28;20205;-87
2022/06/04 01:46:13;;;;;;;3.47;1.80;;;;;;;17.32;100.00;96261.28;5032681;28;20279;-87
2022/06/04 01:48:44;;;;;;;4.40;1.90;;;;;;;17.33;100.00;96257.47;5047049;28;20524;-87
2022/06/04 01:51:16;;;;;;;2.90;1.73;;;;;;;17.32;100.00;96262.09;5028764;28;20248;-86
2022/06/04 01:53:46;;;;;;;2.67;1.70;;;;;;;17.34;100.00;96259.91;5027195;28;20314;-86
2022/06/04 01:56:19;;;;;;;5.07;1.50;;;;;;;17.25;100.00;96247.94;5044835;28;20202;-86
2022/06/04 01:58:52;;;;;;;2.03;1.40;;;;;;;17.24;100.00;96254.47;5028131;28;20213;-87
2022/06/04 02:01:25;;;;;;;3.70;1.40;;;;;;;17.21;100.00;96246.00;5037412;28;20229;-87
2022/06/04 02:03:58;;;;;;;3.53;1.70;;;;;;;17.27;100.00;96248.44;5044986;28;21281;-88
2022/06/04 02:06:29;;;;;;;2.23;1.60;;;;;;;17.27;100.00;96250.34;5043430;28;20209;-87
2022/06/04 02:09:00;;;;;;;5.20;1.63;;;;;;;17.20;100.00;96247.91;5043401;28;20290;-88
2022/06/04 02:11:27;;;;;;;2.00;1.60;;;;;;;17.15;100.00;96247.09;5024212;28;20210;-87
2022/06/04 02:13:59;;;;;;;2.00;1.63;;;;;;;17.08;100.00;96243.84;5052877;28;20210;-87
2022/06/04 02:16:32;;;;;;;2.30;1.47;;;;;;;17.07;100.00;96245.75;5038262;28;20209;-88
2022/06/04 02:19:01;;;;;;;3.00;1.57;;;;;;;17.07;100.00;96248.47;5044074;28;20218;-87
2022/06/04 02:21:30;;;;;;;1.60;1.43;;;;;;;17.04;100.00;96238.09;5026373;28;20222;-87
2022/06/04 02:23:57;;;;;;;4.93;1.70;;;;;;;17.01;100.00;96233.22;5020966;28;20217;-86
2022/06/04 02:26:25;;;;;;;2.30;1.37;;;;;;;16.99;100.00;96227.22;5029126;28;20209;-87
2022/06/04 02:28:54;;;;;;;3.17;1.67;;;;;;;16.93;100.00;96209.19;5030309;28;20296;-87
2022/06/04 02:31:30;;;;;;;3.77;1.50;;;;;;;16.95;100.00;96207.00;5038732;28;20205;-87
2022/06/04 02:34:07;;;;;;;4.73;1.63;;;;;;;16.96;100.00;96203.19;5027166;28;20240;-86
2022/06/04 02:36:41;;;;;;;2.73;1.30;;;;;;;16.97;100.00;96192.03;5041958;28;20237;-88
2022/06/04 02:39:16;;;;;;;2.40;1.63;;;;;;;16.97;100.00;96188.47;5028021;28;20290;-87
2022/06/04 02:41:48;;;;;;;2.50;1.73;;;;;;;16.96;100.00;96184.94;5035989;28;20267;-87
2022/06/04 02:44:21;;;;;;;1.43;1.33;;;;;;;16.89;100.00;96180.84;5039814;28;20240;-87
2022/06/04 02:46:58;;;;;;;5.70;1.40;;;;;;;16.74;100.00;96169.94;5041529;28;20216;-87
2022/06/04 02:49:31;;;;;;;3.63;1.40;;;;;;;16.72;100.00;96169.41;5044082;28;20228;-87
2022/06/04 02:51:59;;;;;;;2.37;1.70;;;;;;;16.72;100.00;96170.22;5042271;28;20244;-87
2022/06/04 02:54:30;;;;;;;2.30;1.60;;;;;;;16.73;100.00;96173.75;5033945;28;20209;-88
2022/06/04 02:56:59;;;;;;;2.73;1.47;;;;;;;16.77;100.00;96172.13;5044976;28;20214;-86
2022/06/04 02:59:28;;;;;;;6.40;1.80;;;;;;;16.78;100.00;96171.84;5041668;28;20225;-86
2022/06/04 03:02:01;;;;;;;3.07;1.70;;;;;;;16.74;100.00;96183.59;5044122;28;20222;-87
2022/06/04 03:04:28;;;;;;;3.77;1.77;;;;;;;16.76;100.00;96174.03;5031482;28;20355;-86
2022/06/04 03:07:05;;;;;;;10.47;1.83;;;;;;;16.74;100.00;96167.22;5035706;28;20209;-87
2022/06/04 03:09:33;;;;;;;4.53;1.77;;;;;;;16.80;100.00;96168.84;5034020;28;20225;-87
2022/06/04 03:12:00;;;;;;;4.03;1.60;;;;;;;16.84;100.00;96172.69;5036072;28;20204;-87
2022/06/04 03:14:27;;;;;;;1.97;1.40;;;;;;;17.04;100.00;96186.28;5048170;28;20308;-88
2022/06/04 03:16:53;;;;;;;1.87;1.40;;;;;;;17.14;100.00;96190.91;5027445;28;20221;-86
2022/06/04 03:19:22;;;;;;;5.47;1.40;;;;;;;17.18;100.00;96198.25;5052818;28;20193;-87
2022/06/04 03:21:49;;;;;;;5.90;1.50;;;;;;;17.26;100.00;96214.09;5028525;28;20221;-87
2022/06/04 03:24:17;;;;;;;3.23;1.87;;;;;;;17.24;100.00;96232.63;5052326;28;20348;-87
2022/06/04 03:26:44;;;;;;;7.40;2.27;;;;;;;17.16;100.00;96235.09;5032477;28;20222;-88
2022/06/04 03:29:11;;;;;;;5.83;2.37;;;;;;;17.10;100.00;96244.41;5032472;28;20220;-87
2022/06/04 03:31:38;;;;;;;4.60;2.30;;;;;;;16.93;100.00;96244.66;5040540;28;20267;-87
2022/06/04 03:34:06;;;;;;;3.37;2.40;;;;;;;16.76;100.00;96255.03;5047292;28;20233;-87
2022/06/04 03:36:34;;;;;;;7.20;2.23;;;;;;;16.59;100.00;96242.41;5027522;28;20237;-87
2022/06/04 03:39:02;;;;;;;5.73;2.17;;;;;;;16.51;100.00;96234.78;5033118;28;20301;-86
2022/06/04 03:41:29;;;;;;;5.17;2.63;;;;;;;16.45;100.00;96240.50;5038552;28;20237;-87
2022/06/04 03:43:57;;;;;;;4.73;2.57;;;;;;;16.39;100.00;96239.66;5030051;28;20213;-87
2022/06/04 03:46:25;;;;;;;5.43;2.60;;;;;;;16.43;100.00;96251.66;5046828;28;20202;-86
2022/06/04 03:48:53;;;;;;;3.37;2.17;;;;;;;16.41;100.00;96255.75;5071289;28;20209;-87
2022/06/04 03:51:20;;;;;;;4.70;2.40;;;;;;;16.34;100.00;96253.25;5042533;28;20308;-87
2022/06/04 03:53:49;;;;;;;4.80;2.50;;;;;;;16.38;100.00;96251.66;5064965;28;20219;-87
2022/06/04 03:56:16;;;;;;;3.13;2.53;;;;;;;16.33;100.00;96243.47;5049657;28;20324;-87
2022/06/04 03:58:43;;;;;;;7.73;2.40;;;;;;;16.40;100.00;96249.50;5050021;28;20202;-87
2022/06/04 04:01:15;;;;;;;4.63;2.10;;;;;;;16.44;100.00;96250.56;5052429;28;20201;-87
2022/06/04 04:03:42;;;;;;;3.30;2.47;;;;;;;16.48;100.00;96254.41;5051099;28;20617;-87
2022/06/04 04:06:13;;;;;;;3.23;2.10;;;;;;;16.50;100.00;96249.47;5049796;28;20213;-87
2022/06/04 04:08:40;;;;;;;5.83;2.40;;;;;;;16.51;100.00;96244.84;5038445;28;20206;-87
2022/06/04 04:11:12;;;;;;;7.00;2.30;;;;;;;16.48;100.00;96245.41;5046855;28;20221;-87
2022/06/04 04:13:39;;;;;;;3.87;2.27;;;;;;;16.47;100.00;96250.03;5050780;28;20209;-87
2022/06/04 04:16:07;;;;;;;4.80;2.10;;;;;;;16.54;100.00;96272.41;5052907;28;20224;-87
2022/06/04 04:18:35;;;;;;;5.07;2.60;;;;;;;16.56;100.00;96281.13;5061753;28;20268;-87
2022/06/04 04:21:06;;;;;;;9.43;2.50;;;;;;;16.59;100.00;96298.84;5047663;28;20201;-87
2022/06/04 04:23:33;;;;;;;3.53;2.20;;;;;;;16.68;100.00;96318.25;5046075;28;20213;-86
2022/06/04 04:26:00;;;;;;;5.07;2.77;;;;;;;16.69;100.00;96350.69;5050152;28;20202;-87
2022/06/04 04:28:29;;;;;;;8.50;3.03;;;;;;;16.84;100.00;96408.00;5051696;28;20217;-87
2022/06/04 04:30:57;;;;;;;4.93;2.93;;;;;;;16.83;100.00;96435.56;5058023;28;20301;-87
2022/06/04 04:33:24;;;;;;;3.60;2.30;;;;;;;17.07;100.00;96461.28;5044532;28;20190;-87
2022/06/04 04:35:51;;;;;;;3.97;2.00;;;;;;;17.52;100.00;96462.47;5051207;28;20231;-87
2022/06/04 04:38:21;;;;;;;3.13;1.70;;;;;;;18.05;100.00;96444.72;5050567;28;20214;-86
2022/06/04 04:40:49;;;;;;;5.43;2.27;;;;;;;18.13;100.00;96433.22;5065905;28;20259;-87
2022/06/04 04:43:17;;;;;;;5.43;2.40;;;;;;;17.86;100.00;96447.22;5053132;28;20245;-86
2022/06/04 04:45:45;;;;;;;4.23;2.30;;;;;;;17.73;100.00;96445.84;5062609;28;20202;-88
2022/06/04 04:48:15;;;;;;;5.50;2.30;;;;;;;17.63;100.00;96443.09;5057883;28;20229;-86
2022/06/04 04:50:48;;;;;;;3.23;2.40;;;;;;;17.53;100.00;96436.78;5048395;28;20277;-88
2022/06/04 04:53:16;;;;;;;4.07;2.60;;;;;;;17.47;100.00;96421.50;5047232;28;20210;-88
2022/06/04 04:55:47;;;;;;;5.03;2.30;;;;;;;17.46;100.00;96425.31;5066428;28;20205;-88
2022/06/04 04:58:14;;;;;;;6.87;2.00;;;;;;;17.52;100.00;96430.53;5052085;28;20216;-87
2022/06/04 05:00:43;;;;;;;4.67;2.13;;;;;;;17.41;100.00;96426.13;5060041;28;20221;-87
2022/06/04 05:03:12;;;;;;;4.77;2.30;;;;;;;17.48;100.00;96428.59;5044761;28;20305;-88
2022/06/04 05:05:39;;;;;;;3.57;2.00;;;;;;;17.44;100.00;96422.06;5059650;28;20212;-88
2022/06/04 05:08:06;;;;;;;4.90;2.70;;;;;;;17.46;100.00;96422.56;5049176;28;20260;-87
2022/06/04 05:10:33;;;;;;;5.60;2.57;;;;;;;17.46;100.00;96439.78;5050023;28;20307;-87
2022/06/04 05:13:00;;;;;;;6.67;2.70;;;;;;;17.57;100.00;96459.72;5062747;28;20244;-87
2022/06/04 05:15:28;;;;;;;5.47;2.60;;;;;;;17.57;100.00;96462.44;5048677;28;20248;-87
2022/06/04 05:17:55;;;;;;;4.23;2.40;;;;;;;17.62;100.00;96454.28;5047461;28;20415;-87
2022/06/04 05:20:23;;;;;;;6.10;2.60;;;;;;;17.58;100.00;96454.00;5040231;28;20213;-88
2022/06/04 05:22:50;;;;;;;3.63;2.70;;;;;;;17.61;100.00;96455.34;5042131;28;20316;-86
2022/06/04 05:25:17;;;;;;;8.00;2.70;;;;;;;17.69;100.00;96473.97;5067308;28;20202;-87
2022/06/04 05:27:44;;;;;;;3.13;2.60;;;;;;;17.72;100.00;96476.16;5055653;28;20210;-88
2022/06/04 05:30:13;;;;;;;5.67;2.57;;;;;;;17.78;100.00;96481.31;5050663;28;20202;-88
2022/06/04 05:32:40;;;;;;;3.43;2.27;;;;;;;17.84;100.00;96487.63;5051189;28;20217;-88
2022/06/04 05:35:07;;;;;;;5.53;2.77;;;;;;;17.87;100.00;96498.00;5066171;28;20245;-87
2022/06/04 05:37:36;;;;;;;4.47;2.73;;;;;;;17.89;100.00;96498.53;5066587;28;20232;-87
2022/06/04 05:40:04;;;;;;;3.87;2.90;;;;;;;17.99;100.00;96500.47;5061192;28;20211;-87
2022/06/04 05:42:31;;;;;;;4.70;2.50;;;;;;;18.07;100.00;96498.00;5057949;28;20231;-87
2022/06/04 05:44:59;;;;;;;5.27;2.50;;;;;;;18.10;100.00;96505.66;5042977;28;20278;-88
2022/06/04 05:47:27;;;;;;;6.03;2.60;;;;;;;18.17;100.00;96510.84;5046057;28;20251;-88
2022/06/04 05:49:54;;;;;;;4.87;2.73;;;;;;;18.25;100.00;96518.50;5036605;28;20221;-87
2022/06/04 05:52:23;;;;;;;7.10;2.70;;;;;;;18.32;100.00;96501.81;5064502;28;20244;-88
2022/06/04 05:54:51;;;;;;;4.80;2.97;;;;;;;18.35;100.00;96499.34;5043599;28;20201;-86
2022/06/04 05:57:19;;;;;;;4.90;3.20;;;;;;;18.33;100.00;96478.84;5044796;28;20201;-86
2022/06/04 05:59:50;;;;;;;6.03;3.60;;;;;;;18.35;100.00;96468.47;5046927;28;20265;-86
2022/06/04 06:02:17;;;;;;;6.43;4.10;;;;;;;18.38;100.00;96460.50;5057883;28;20214;-86
2022/06/04 06:04:44;;;;;;;4.33;3.70;;;;;;;18.43;100.00;96452.31;5056654;28;20206;-86
2022/06/04 06:07:11;;;;;;;5.07;4.00;;;;;;;18.43;100.00;96446.84;5043692;28;20255;-86
2022/06/04 06:09:38;;;;;;;4.67;3.90;;;;;;;18.41;100.00;96432.63;5043804;28;20220;-86
2022/06/04 06:12:08;;;;;;;5.97;3.70;;;;;;;18.41;100.00;96431.81;5059159;28;20268;-86
2022/06/04 06:14:35;;;;;;;6.30;4.00;;;;;;;18.40;100.00;96427.44;5043561;28;20202;-86
2022/06/04 06:17:02;;;;;;;3.80;3.37;;;;;;;18.36;100.00;96424.44;5044568;28;20232;-87
2022/06/04 06:19:29;;;;;;;6.70;4.27;;;;;;;18.34;100.00;96429.38;5049240;28;20201;-86
2022/06/04 06:21:56;;;;;;;5.53;3.60;;;;;;;18.32;100.00;96433.47;5062489;28;20198;-86
2022/06/04 06:24:23;;;;;;;6.00;3.73;;;;;;;18.30;100.00;96417.34;5058779;28;20202;-87
2022/06/04 06:26:53;;;;;;;5.70;4.07;;;;;;;18.34;100.00;96425.81;5055112;28;20212;-86
2022/06/04 06:29:24;;;;;;;5.97;4.23;;;;;;;18.46;100.00;96429.03;5060558;28;20214;-86
2022/06/04 06:31:51;;;;;;;4.37;3.97;;;;;;;18.52;100.00;96419.75;5061909;28;20205;-87
2022/06/04 06:34:19;;;;;;;8.43;3.97;;;;;;;18.54;100.00;96412.09;5060420;28;20205;-86
2022/06/04 06:36:47;;;;;;;3.93;3.53;;;;;;;18.80;100.00;96407.34;5043992;28;20224;-86
2022/06/04 06:39:14;;;;;;;6.23;3.87;;;;;;;19.03;100.00;96387.53;5034535;28;20212;-86
2022/06/04 06:41:42;;;;;;;4.30;3.90;;;;;;;19.19;100.00;96377.31;5056825;28;20244;-85
2022/06/04 06:44:11;;;;;;;7.50;3.93;;;;;;;19.39;100.00;96370.88;5062982;28;20231;-86
2022/06/04 06:46:41;;;;;;;6.13;3.70;;;;;;;19.45;100.00;96372.47;5045122;28;20194;-86
2022/06/04 06:49:12;;;;;;;5.90;3.60;;;;;;;19.48;100.00;96378.19;5044675;28;20236;-86
2022/06/04 06:51:42;;;;;;;7.97;3.40;;;;;;;19.44;100.00;96374.38;5063181;28;20199;-86
2022/06/04 06:54:10;;;;;;;5.32;3.22;;;;;;;19.45;100.00;96370.53;5043301;28;20229;-86
2022/06/04 06:56:41;;;;;;;5.22;3.10;;;;;;;19.48;100.00;96361.75;5053979;28;20201;-86
2022/06/04 06:59:09;;;;;;;3.83;2.70;;;;;;;19.50;100.00;96356.81;5057050;28;20293;-86
2022/06/04 07:01:37;;;;;;;5.15;3.25;;;;;;;19.65;100.00;96353.94;5058053;28;20212;-86
2022/06/04 07:04:06;;;;;;;7.78;3.10;;;;;;;19.74;99.93;96337.72;5041472;28;20221;-86
2022/06/04 07:06:35;;;;;;;4.05;3.03;;;;;;;19.68;100.00;96330.66;5037240;28;20209;-86
2022/06/04 07:09:03;;;;;;;5.97;2.88;;;;;;;19.66;100.00;96335.59;5056023;28;20216;-86
2022/06/04 07:11:31;;;;;;;4.22;2.92;;;;;;;19.65;100.00;96331.22;5037189;28;20213;-86
2022/06/04 07:13:58;;;;;;;3.85;3.00;;;;;;;19.86;100.00;96327.19;5058837;28;20197;-87
2022/06/04 07:16:25;;;;;;;4.55;2.63;;;;;;;20.30;95.63;96326.97;5039781;28;20234;-87
2022/06/04 07:18:52;;;;;;;3.85;2.40;;;;;;;20.75;92.52;96324.81;5043301;28;20225;-87
2022/06/04 07:21:21;;;;;;;4.07;2.40;;;;;;;21.16;89.98;96316.78;5047035;28;20296;-87
2022/06/04 07:23:49;;;;;;;3.38;2.15;;;;;;;21.52;87.72;96320.59;5058337;28;20226;-87
2022/06/04 07:26:16;;;;;;;3.67;2.70;;;;;;;21.86;85.35;96306.53;5041054;28;20198;-87
2022/06/04 07:28:43;;;;;;;4.65;2.30;;;;;;;22.02;88.14;96303.53;5061329;28;20206;-88
2022/06/04 07:31:12;;;;;;;5.55;2.70;;;;;;;22.20;88.83;96306.19;5039814;28;20201;-87
2022/06/04 07:33:42;;;;;;;5.72;2.33;;;;;;;22.22;87.86;96294.88;5057105;28;20201;-87
2022/06/04 07:36:14;;;;;;;6.78;2.35;;;;;;;22.26;85.22;96296.72;5047008;28;20206;-87
2022/06/04 07:38:42;;;;;;;5.47;2.15;;;;;;;22.25;87.14;96286.84;5035511;28;20217;-87
2022/06/04 07:41:17;;;;;;;3.92;2.22;;;;;;;22.16;89.93;96269.44;5044258;28;20313;-87
2022/06/04 07:43:44;;;;;;;5.63;2.30;;;;;;;22.13;86.38;96285.72;5043223;28;20266;-88
2022/06/04 07:46:11;;;;;;;2.28;2.05;;;;;;;22.09;87.06;96269.03;5058267;28;20198;-87
2022/06/04 07:48:38;;;;;;;3.50;2.38;;;;;;;22.28;85.72;96266.19;5036726;28;20303;-87
2022/06/04 07:51:05;;;;;;;3.35;2.15;;;;;;;22.40;86.20;96262.88;5052028;28;20198;-87
2022/06/04 07:53:33;;;;;;;3.45;2.10;;;;;;;22.51;84.69;96259.63;5060710;28;20224;-86
2022/06/04 07:56:07;;;;;;;3.15;2.20;;;;;;;22.54;88.84;96253.47;5056261;28;20209;-86
2022/06/04 07:58:34;;;;;;;3.50;2.13;;;;;;;22.73;87.51;96258.84;5039498;28;20214;-86
2022/06/04 08:01:03;;;;;;;5.03;2.03;;;;;;;22.95;84.77;96258.94;5041974;28;20209;-86
2022/06/04 08:03:30;;;;;;;5.13;2.47;;;;;;;23.29;84.69;96263.91;5041143;28;20236;-87
2022/06/04 08:05:58;;;;;;;6.20;2.60;;;;;;;23.57;81.82;96258.25;5035628;28;20205;-86
2022/06/04 08:08:25;;;;;;;4.10;1.90;;;;;;;23.66;82.17;96245.31;5042226;28;20208;-87
2022/06/04 08:10:52;;;;;;;4.95;2.15;;;;;;;23.60;83.68;96236.38;5039154;28;20200;-87
2022/06/04 08:13:23;;;;;;;3.95;1.88;;;;;;;23.63;80.63;96240.47;5056076;28;20218;-87
2022/06/04 08:15:50;;;;;;;4.78;2.10;;;;;;;23.80;81.09;96235.03;5043791;28;20225;-85
2022/06/04 08:18:17;;;;;;;3.13;2.13;;;;;;;23.96;79.86;96239.00;5041677;28;20205;-87
2022/06/04 08:20:45;;;;;;;3.67;2.20;;;;;;;23.98;78.17;96231.22;5060734;28;20193;-87
2022/06/04 08:23:13;;;;;;;7.07;2.10;;;;;;;24.05;80.17;96233.53;5040020;28;20222;-86
2022/06/04 08:25:40;;;;;;;4.53;2.30;;;;;;;24.39;75.60;96241.13;5062292;28;20233;-87
2022/06/04 08:28:08;;;;;;;3.47;2.35;;;;;;;24.74;69.83;96233.72;5050529;28;20204;-87
2022/06/04 08:30:37;;;;;;;5.50;2.50;;;;;;;25.06;68.14;96232.44;5047704;28;20301;-86
2022/06/04 08:33:06;;;;;;;4.65;2.80;;;;;;;25.33;69.42;96240.41;5051056;28;20197;-86
2022/06/04 08:35:33;;;;;;;5.43;3.17;;;;;;;25.44;70.53;96235.31;5047003;28;20212;-87
2022/06/04 08:38:01;;;;;;;5.95;2.58;;;;;;;25.33;72.67;96234.88;5053406;28;20332;-88
2022/06/04 08:40:32;;;;;;;6.55;2.70;;;;;;;25.22;72.61;96225.28;5046195;28;20216;-86
2022/06/04 08:43:15;;;;;;;3.40;3.10;;;;;;;25.12;74.96;96228.38;5044981;28;20329;-86
2022/06/04 08:45:44;;;;;;;7.43;3.15;;;;;;;25.08;76.03;96219.13;5050091;28;20227;-87
2022/06/04 08:48:17;;;;;;;4.78;2.90;;;;;;;25.09;74.90;96223.50;5063633;28;20220;-86
2022/06/04 08:50:47;;;;;;;3.15;2.85;;;;;;;25.06;74.81;96213.91;5046775;28;20297;-87
2022/06/04 08:53:20;;;;;;;5.05;3.25;;;;;;;25.09;74.92;96216.03;5057511;28;20378;-87
2022/06/04 08:58:52;;;;;;;4.40;3.20;;;;;;;25.25;75.61;96224.63;5057971;28;20211;-86
2022/06/04 09:01:27;;;;;;;5.03;3.08;;;;;;;25.37;74.48;96226.72;5063497;28;20209;-87
2022/06/04 09:04:02;;;;;;;6.40;3.20;;;;;;;25.25;72.69;96224.63;5046427;28;20293;-86
2022/06/04 09:06:38;;;;;;;5.82;3.38;;;;;;;25.02;73.88;96212.13;5057538;28;20213;-89
2022/06/04 09:09:13;;;;;;;5.30;3.30;;;;;;;25.15;76.00;96209.19;5055544;28;20201;-86
2022/06/04 09:11:49;;;;;;;5.35;3.15;;;;;;;25.30;73.61;96218.94;5046223;28;20209;-85
2022/06/04 09:14:37;;;;;;;3.92;3.10;;;;;;;25.34;70.64;96217.16;5039532;28;20263;-86
2022/06/04 09:17:11;;;;;;;6.05;3.40;;;;;;;25.30;72.75;96218.94;5040552;28;20279;-86
2022/06/04 09:19:40;;;;;;;6.13;3.40;;;;;;;25.40;71.69;96221.34;5059689;28;20272;-86
2022/06/04 09:22:16;;;;;;;4.97;2.90;;;;;;;25.46;69.17;96225.56;5050145;28;20294;-86
2022/06/04 09:24:43;;;;;;;3.92;3.10;;;;;;;25.55;70.48;96217.25;5036936;28;20315;-86
2022/06/04 09:27:26;;;;;;;6.28;3.15;;;;;;;25.71;69.34;96209.25;5059768;28;20201;-86
2022/06/04 09:30:03;;;;;;;3.25;2.72;;;;;;;25.69;67.95;96212.34;5054171;28;20228;-86
2022/06/04 09:32:46;;;;;;;2.97;2.60;;;;;;;25.63;69.07;96213.69;5058787;28;20213;-85
2022/06/04 09:35:17;;;;;;;4.32;3.03;;;;;;;25.58;69.42;96202.78;5062122;28;20202;-86
2022/06/04 09:37:46;;;;;;;5.07;2.95;;;;;;;25.68;70.63;96212.69;5047927;28;20217;-85
2022/06/04 09:40:23;;;;;;;5.38;3.10;;;;;;;25.90;70.07;96210.50;5045705;28;20210;-86
2022/06/04 09:42:51;;;;;;;4.47;3.53;;;;;;;26.03;70.20;96205.88;5019618;28;20245;-85
2022/06/04 09:45:22;;;;;;;3.75;3.20;;;;;;;26.12;68.92;96203.88;5038008;28;20204;-86
2022/06/04 09:47:55;;;;;;;10.32;4.40;;;;;;;26.25;67.92;96202.03;5018785;28;20234;-85
2022/06/04 09:50:27;;;;;;;6.72;2.92;;;;;;;26.12;67.92;96198.34;5008330;28;20229;-85
2022/06/04 09:53:01;;;;;;;4.22;3.10;;;;;;;26.08;68.98;96205.72;5029577;28;20214;-85
2022/06/04 09:55:30;;;;;;;6.10;3.10;;;;;;;26.11;69.03;96215.31;5024123;28;20226;-85
2022/06/04 09:57:59;;;;;;;5.63;3.00;;;;;;;26.37;70.01;96208.50;5038942;28;20202;-86
2022/06/04 10:00:29;;;;;;;6.13;3.15;;;;;;;26.52;67.75;96200.75;5042536;28;20199;-85
2022/06/04 10:02:59;;;;;;;4.22;3.33;;;;;;;26.49;67.85;96201.44;5026568;28;20271;-86
2022/06/04 10:05:28;;;;;;;4.35;3.35;;;;;;;26.46;68.39;96207.63;5023120;28;20336;-86
2022/06/04 10:07:56;;;;;;;3.70;3.30;;;;;;;26.47;71.25;96203.72;5040211;28;20209;-86
2022/06/04 10:10:29;;;;;;;5.47;3.30;;;;;;;26.49;70.39;96204.19;5036615;28;20326;-85
2022/06/04 10:15:44;;;;;;;4.63;3.40;;;;;;;26.56;71.97;96208.06;5019996;28;20245;-87
2022/06/04 10:18:24;;;;;;;3.60;3.28;;;;;;;26.87;68.66;96213.22;5042274;28;20218;-87
2022/06/04 10:21:03;;;;;;;7.97;3.22;;;;;;;26.98;68.27;96203.38;5036921;28;20214;-86
2022/06/04 10:23:41;;;;;;;5.75;3.47;;;;;;;26.93;70.33;96211.91;5017182;28;20218;-86
2022/06/04 10:26:25;;;;;;;4.18;3.20;;;;;;;26.84;69.03;96208.34;5035446;28;20284;-86
2022/06/04 10:29:09;;;;;;;3.33;3.03;;;;;;;26.86;68.33;96208.00;5036995;28;20202;-85
2022/06/04 10:31:51;;;;;;;5.18;2.90;;;;;;;26.81;66.92;96206.25;5024535;28;20199;-85
2022/06/04 10:34:31;;;;;;;4.45;3.13;;;;;;;26.83;70.76;96206.72;5026262;28;20207;-85
2022/06/04 10:37:12;;;;;;;7.43;3.95;;;;;;;26.93;70.00;96214.66;5048299;28;20185;-85
2022/06/04 10:39:51;;;;;;;4.60;3.08;;;;;;;26.76;71.52;96212.00;5024969;28;20214;-85
2022/06/04 10:42:37;;;;;;;7.47;3.75;;;;;;;26.76;71.85;96212.00;5044155;28;20242;-85
2022/06/04 10:45:25;;;;;;;6.50;3.67;;;;;;;26.80;70.94;96195.50;5023897;28;20227;-86
2022/06/04 10:48:04;;;;;;;4.97;3.25;;;;;;;26.93;71.62;96205.53;5039617;28;20198;-84
2022/06/04 10:53:33;;;;;;;5.95;3.30;;;;;;;26.92;71.13;96215.81;5028127;28;20205;-86
2022/06/04 10:56:08;;;;;;;6.00;3.47;;;;;;;27.02;69.13;96212.63;5037164;28;20260;-86
2022/06/04 10:58:41;;;;;;;5.93;3.10;;;;;;;26.86;68.02;96202.47;5023516;28;20237;-85
2022/06/04 11:01:14;;;;;;;5.05;3.03;;;;;;;27.08;69.26;96208.50;5037498;28;20293;-86
2022/06/04 11:03:51;;;;;;;10.63;3.40;;;;;;;27.11;68.96;96205.06;5033654;28;20309;-85
2022/06/04 11:06:25;;;;;;;5.15;3.20;;;;;;;27.41;68.22;96216.00;5025832;28;20237;-86
2022/06/04 11:08:57;;;;;;;5.47;3.20;;;;;;;27.53;67.74;96212.47;5024234;28;20214;-85
2022/06/04 11:11:30;;;;;;;4.63;3.15;;;;;;;27.50;65.31;96220.31;5028734;28;20213;-86
2022/06/04 11:14:02;;;;;;;5.38;2.97;;;;;;;27.52;66.60;96220.00;5040400;28;20207;-84
2022/06/04 11:16:35;;;;;;;6.00;3.10;;;;;;;27.31;65.25;96221.97;5031861;28;20261;-86
2022/06/04 11:19:08;;;;;;;4.68;2.85;;;;;;;27.27;66.01;96218.28;5039371;28;20312;-85
2022/06/04 11:21:41;;;;;;;4.43;3.22;;;;;;;27.02;68.36;96220.94;5029112;28;20239;-86
2022/06/04 11:24:15;;;;;;;4.13;3.00;;;;;;;27.06;68.72;96221.06;5027926;28;20245;-86
2022/06/04 11:26:48;;;;;;;4.32;2.90;;;;;;;27.19;69.40;96225.53;5021470;28;20296;-86
2022/06/04 11:29:16;;;;;;;6.45;3.10;;;;;;;27.16;68.20;96222.63;5024654;28;20206;-86
2022/06/04 11:32:06;;;;;;;5.70;3.40;;;;;;;27.07;69.46;96222.69;5028433;28;20211;-85
2022/06/04 11:35:13;;;;;;;6.53;3.28;;;;;;;27.34;69.13;96226.84;5042744;28;20268;-87
2022/06/04 11:38:06;;;;;;;7.13;3.13;;;;;;;27.07;68.19;96229.03;5004230;28;20217;-86
2022/06/04 11:40:39;;;;;;;4.95;3.00;;;;;;;26.61;69.08;96230.03;5040116;28;20272;-86
2022/06/04 11:43:14;;;;;;;6.57;3.22;;;;;;;26.27;71.55;96236.56;5052734;28;20202;-86
2022/06/04 11:45:50;;;;;;;7.18;3.33;;;;;;;26.15;72.28;96230.91;5042065;28;20240;-86
2022/06/04 11:48:40;;;;;;;4.38;3.17;;;;;;;26.32;72.65;96230.84;5044358;28;20391;-85
2022/06/04 11:51:22;;;;;;;6.53;3.03;;;;;;;26.45;71.93;96230.94;5038884;28;20271;-86
2022/06/04 11:53:57;;;;;;;4.50;3.10;;;;;;;26.23;71.57;96235.56;5047112;28;20202;-86
2022/06/04 11:56:34;;;;;;;5.65;3.20;;;;;;;25.99;71.90;96243.66;5039323;28;20198;-85
2022/06/04 11:59:26;;;;;;;6.22;3.10;;;;;;;25.97;72.08;96241.22;5043483;28;20226;-86
2022/06/04 12:01:58;;;;;;;5.97;3.00;;;;;;;25.96;71.43;96244.31;5057679;28;20214;-84
2022/06/04 12:04:33;;;;;;;4.30;2.85;;;;;;;26.02;71.68;96243.00;5063046;28;20280;-87